Airfield :
LOGIN :

Register | Disclaimer

   EN    FR    IT 

 










Legend :    VFR   Marginal VFR   IFR   Intensive IFR   Very Intensive IFR
Visi :
Ceiling :
>= 8 km
>= 3000ft
5 to 8 km
1000 to 3000 ft
1500m to 5 km
500 to 1000 ft
800 to 1500m
200 to 500 ft
< 800m
< 200 ft
Symbols :   Thunderstorms  Fog  Heavy snow  Heavy precipitations  Wind > 20 kt
SIGMETs :     Misc.  Thunderstorms  Icing  Turbulence  Mountain Waves  Volcanic Ashes







- Airport Elevation : 202 ft
- IATA code : LGW
- Download approach charts


EGKK - London Gatwick

CURRENT METAR :
  • 200850Z 23009KT 9999 FEW027 10/09 Q1016

EXPIRED METARs :
  • 200820Z 23008KT 9999 SCT032 10/08 Q1017
  • 200750Z 23008KT 9999 BKN035 10/09 Q1017
  • 200720Z 22005KT 9999 BKN029 09/09 Q1017
  • 200650Z 20003KT 9999 FEW015 BKN030 08/08 Q1017
  • 200620Z 20003KT 5000 -RA FEW005 BKN026 06/06 Q1018

TAF AMD TAF EGKK
Valid from the 20 at 06:00 until the 21 at 12:00 UTC


200540Z 2006/2112 24008KT 9999 BKN035
TEMPO 2006/2007 4000 RADZ BKN004
PROB40
TEMPO 2007/2014 8000 -RADZ BKN012
PROB30
TEMPO 2009/2017 25015G25KT
BECMG 2014/2017 BKN012
TEMPO 2014/2103 8000 -RA
PROB40
TEMPO 2019/2103 4000 RADZ BKN006
BECMG 2103/2106 SCT025
No reported NOTAMs for that airfield.



MET'MAP, your aeronautical weather chart ! - Copyright ORBIFLY December 2007 - Disclaimer

ORBIFLY MET'MAP TEAM :

Programming & Development : Alexandra Zaïnal
Concept & Development : Baudouin d'Aumeries
Co-Development & Prog : Marc-Olivier Méhu
Technical & hardware support : Manuel Goepfert

Contact : metmap@orbifly.com




SOURCES & CREDITS :

   NOAA